Ana Sayfa
METAR-TAF:

METAR-TAF

Havaalanları :

Anniston, Alabama, Amerika Birleşik Devletleri

Enlem: 33-35-26N, Boylam: 085-50-51W, yükseklik: 186 m

Güncel hava durumu gözlemi

Rapor saat 17:53 UTC de 29 dakika önce yapıldı.
Sakin rüzgar
Sıcaklık 34°C
Nem 30%
Basınç 1015 hPa
Görüş mesafesi: 16.1 km
Açık gökyüzü

METAR: KANB 251753Z AUTO 00000KT 10SM CLR 34/14 A2997 RMK AO2 SLP138 T03440144 10350 20217 58011

Saat: 13:22 (18:22 UTC)

Tahmin

Rapor saat 17:20 UTC de 1 saat ve 2 dakika önce yapıldı.
Ayın 25'si saat 18 UTC'den ayın 26'si saat 18 UTC'ye kadar geçerli Tahmin
Rüzgar kuzey/kuzeydoğudan 5 kt
Görüş mesafesi: 10 km
25000 ft yükseklikte az bulutlu
Ayın 26'si saat 0100 UTC'den
Rüzgar kuzeydan kt
Görüş mesafesi: 10 km
25000 ft yükseklikte parçalı bulutlu

TAF: KANB 251720Z 2518/2618 03005KT P6SM FEW250 FM260100 00000KT P6SM SCT250

4.000'den fazla havaalanı için hava durumu gözlemleri ve tahminleri (METAR ve TAF raporları).

Kullanılabilir istasyonlar harita üzerinde sarı ve kırmızı noktalarla gösterilir.

İstasyonun adını görmek için fareyi noktanın üzerinde gezdirin.

Sonrasında hava gözlem ve tahminlerini görmek için tıklayın.

Haritayı değiştirmek için: yaklaştırmak için siyah artı işaretli yeşil düğmeye ve uzaklaştırmak için de eksi işaretli düğmeye hızla tıklayın; bitişik haritalar için yeşil okları kullanın.


METAR-TAF: